Elliot Chaparral Reserve, California Weather observations

Data are for 10 minute period ending at time listed.
 Day   Time   Solar   Ave.   Ave.  Ave.  Vector  Max.   Baro.   Total    
  of    of     Rad.   Air    Rel.  Wind   Wind   Wind  Press.  Precip.   
Year   Day            Temp.  Hum.  Speed  Dir.   Gust                    
2014   (PST)  Kw/m2    F      %     mph   deg.    mph    mb.     in.     
-------------------------------------------------------------------------
 243    7:10   0.30   70.6    87    1.1    61     3.2   981.5    0.00 
 243    7:20   0.33   69.5    81    3.2   292     4.5   981.5    0.00 
 243    7:30   0.37   70.2    80    2.3   311     3.6   981.6    0.00 
 243    7:40   0.41   71.5    76    2.7   300     4.6   981.6    0.00 
 243    7:50   0.44   72.6    74    2.7   298     4.3   981.6    0.00 
 243    8:00   0.48   73.7    71    2.9   284     5.0   981.7    0.00 
 243    8:10   0.51   75.1    68    3.0   276     6.0   981.8    0.00 
 243    8:20   0.54   76.2    65    2.7   278     4.5   981.8    0.00 
 243    8:30   0.57   76.9    62    3.4   286     5.6   981.9    0.00 
 243    8:40   0.60   77.2    62    4.6   277     7.3   981.9    0.00 
 243    8:50   0.63   77.5    61    4.5   275     8.4   982.0    0.00 
 243    9:00   0.66   78.5    58    3.7   267     6.7   981.9    0.00 
 243    9:10   0.69   79.6    54    4.5   263     7.8   981.8    0.00 
 243    9:20   0.72   80.5    52    4.5   278     7.4   981.7    0.00 
 243    9:30   0.74   81.4    49    4.2   267     7.5   981.7    0.00 
 243    9:40   0.77   82.1    47    3.8   280     8.3   981.6    0.00 
 243    9:50   0.79   83.9    43    4.0   239     7.6   981.6    0.00 
 243   10:00   0.81   84.6    41    4.6   247     8.0   981.5    0.00 
 243   10:10   0.83   84.9    39    4.4   249     8.1   981.5    0.00 
 243   10:20   0.84   87.0    36    4.9   220    11.8   981.4    0.00 
 243   10:30   0.86   87.5    34    6.3   244    11.9   981.4    0.00 
 243   10:40   0.87   88.0    32    7.4   230    11.5   981.3    0.00 
 243   10:50   0.88   88.8    36   10.7   249    15.3   981.2    0.00 
 243   11:00   0.89   88.7    34    9.0   244    13.2   981.3    0.00 
 243   11:10   0.90   88.5    34    9.7   239    15.9   981.3    0.00 
 243   11:20   0.90   88.7    32   10.5   249    16.0   981.2    0.00 
 243   11:30   0.91   88.2    34   11.9   261    16.1   981.2    0.00 
 243   11:40   0.91   87.9    35   11.8   254    17.3   981.2    0.00 
 243   11:50   0.88   86.4    36   11.4   258    16.7   981.2    0.00 
 243   12:00   0.92   86.3    35   12.2   262    16.9   981.1    0.00 
 243   12:10   0.91   86.1    35   12.9   259    16.1   981.0    0.00 
 243   12:20   0.90   86.4    34   11.7   253    15.3   981.0    0.00 
 243   12:30   0.90   85.7    35   12.2   253    16.1   981.0    0.00 
 243   12:40   0.90   85.6    36   11.3   238    16.4   981.0    0.00 
 243   12:50   0.89   86.1    33   10.4   228    15.3   981.1    0.00 
 243   13:00   0.87   86.0    31   10.3   236    16.0   981.0    0.00 
 243   13:10   0.86   86.0    32    9.8   230    14.2   981.0    0.00 
 243   13:20   0.85   86.2    31    9.5   226    14.3   981.0    0.00 
 243   13:30   0.83   86.6    30    9.4   232    14.5   980.9    0.00 
 243   13:40   0.81   86.5    31   10.5   236    14.9   980.8    0.00 
 243   13:50   0.80   86.6    30   10.1   237    16.7   980.7    0.00 
 243   14:00   0.77   87.3    30    9.5   240    13.2   980.6    0.00 
 243   14:10   0.75   86.4    30   10.4   246    14.4   980.5    0.00 
 243   14:20   0.73   86.6    30    8.9   238    15.3   980.5    0.00 
 243   14:30   0.70   86.7    30    9.1   239    14.2   980.4    0.00 
 243   14:40   0.67   86.2    33    9.1   244    11.9   980.3    0.00 
 243   14:50   0.65   86.5    35    9.7   250    13.7   980.2    0.00 
 243   15:00   0.61   85.6    37    9.7   251    13.2   980.2    0.00 
 243   15:10   0.58   85.0    39    8.9   258    13.5   980.2    0.00 
 243   15:20   0.56   84.6    39    7.8   257    11.5   980.1    0.00 
 243   15:30   0.52   84.5    40    9.3   239    13.8   980.1    0.00 
 243   15:40   0.49   83.8    42    8.7   240    12.1   980.1    0.00 
 243   15:50   0.46   83.4    44    9.8   235    15.2   980.0    0.00 
 243   16:00   0.42   83.8    44    9.1   235    11.6   980.0    0.00 
 243   16:10   0.39   82.2    48    8.4   225    11.2   980.0    0.00 
 243   16:20   0.35   82.7    47    7.9   225    11.1   980.0    0.00 
 243   16:30   0.31   82.0    50    7.7   232    11.5   980.1    0.00 
 243   16:40   0.28   81.7    52    7.9   220    11.2   980.1    0.00 
 243   16:50   0.24   80.8    54    7.4   229    10.8   980.1    0.00 
 243   17:00   0.21   80.3    55    7.0   249    11.2   980.1    0.00 
 243   17:10   0.17   79.6    58    6.7   235    10.0   980.1    0.00 
 243   17:20   0.14   78.8    61    7.3   242    10.7   980.1    0.00 
 243   17:30   0.11   77.5    64    8.1   236    11.3   980.1    0.00 
 243   17:40   0.08   77.1    65    7.6   244    10.0   980.2    0.00 
 243   17:50   0.05   75.9    68    7.4   239     9.6   980.3    0.00 
 243   18:00   0.03   74.7    71    7.3   239     8.5   980.4    0.00 
 243   18:10   0.01   73.4    73    7.2   242     9.2   980.4    0.00 
 243   18:20   0.00   72.3    76    6.6   237     8.0   980.4    0.00 
 243   18:30   0.00   71.5    78    6.1   243     7.8   980.6    0.00 
 243   18:40   0.00   71.0    78    5.4   216     7.1   980.7    0.00 
 243   18:50   0.00   70.5    79    6.6   204     7.8   980.8    0.00 
 243   19:00   0.00   69.9    80    6.6   205     7.8   980.9    0.00 
 243   19:10   0.00   69.4    81    6.4   196     8.0   981.0    0.00 
 243   19:20   0.00   68.9    82    7.0   186     8.6   981.0    0.00 
 243   19:30   0.00   68.5    83    7.4   186     9.2   981.2    0.00 
 243   19:40   0.00   68.1    84    5.4   188     7.7   981.2    0.00 
 243   19:50   0.00   67.7    85    5.1   194     7.2   981.3    0.00 
 243   20:00   0.00   67.4    86    6.3   196     7.6   981.3    0.00 
 243   20:10   0.00   67.1    87    6.0   191     7.5   981.3    0.00 
 243   20:20   0.00   66.8    88    5.0   181     6.7   981.3    0.00 
 243   20:30   0.00   66.5    88    5.1   179     6.3   981.3    0.00 
 243   20:40   0.00   66.2    88    4.5   177     5.4   981.4    0.00 
 243   20:50   0.00   66.2    88    3.6   181     4.3   981.4    0.00 
 243   21:00   0.00   65.9    88    4.4   176     6.0   981.4    0.00 
 243   21:10   0.00   65.6    89    4.2   183     6.1   981.5    0.00 
 243   21:20   0.00   65.5    89    3.8   185     5.3   981.5    0.00 
 243   21:30   0.00   65.3    90    3.3   173     4.4   981.5    0.00 
 243   21:40   0.00   65.3    90    4.3   188     5.4   981.6    0.00 
 243   21:50   0.00   65.3    90    4.8   180     6.2   981.6    0.00 
 243   22:00   0.00   65.1    91    5.2   182     6.9   981.6    0.00 
 243   22:10   0.00   65.0    91    5.4   179     6.9   981.6    0.00 
 243   22:20   0.00   65.0    92    7.1   188     9.5   981.6    0.00 
 243   22:30   0.00   65.0    92    7.0   189     9.0   981.7    0.00 
 243   22:40   0.00   65.3    92    6.0   190     8.8   981.8    0.00 
 243   22:50   0.00   65.3    92    5.6   183     7.8   981.8    0.00 
 243   23:00   0.00   65.1    93    6.1   178     7.9   981.7    0.00 
 243   23:10   0.00   65.0    93    5.3   170     7.4   981.7    0.00 
 243   23:20   0.00   65.0    93    5.2   171     6.9   981.7    0.00 
 243   23:30   0.00   64.8    93    4.8   161     6.5   981.6    0.00 
 243   23:40   0.00   64.7    93    5.2   158     6.3   981.6    0.00 
 243   23:50   0.00   64.5    93    4.6   159     6.0   981.6    0.00 
 244    0:00   0.00   64.4    93    3.3   152     5.6   981.5    0.00 
 244    0:10   0.00   64.3    93    3.2   144     4.5   981.5    0.00 
 244    0:20   0.00   64.3    93    3.5   178     4.7   981.5    0.00 
 244    0:30   0.00   64.3    93    3.6   190     5.3   981.6    0.00 
 244    0:40   0.00   64.1    93    4.3   204     6.6   981.5    0.00 
 244    0:50   0.00   63.6    93    6.9   200     7.9   981.5    0.00 
 244    1:00   0.00   63.5    93    4.9   200     7.5   981.4    0.00 
 244    1:10   0.00   63.8    93    3.8   192     5.4   981.4    0.00 
 244    1:20   0.00   63.9    93    2.8   198     4.4   981.4    0.00 
 244    1:30   0.00   63.7    93    3.3   189     4.9   981.4    0.00 
 244    1:40   0.00   63.5    93    3.4   183     5.8   981.3    0.00 
 244    1:50   0.00   63.4    93    3.3   173     4.2   981.2    0.00 
 244    2:00   0.00   63.2    93    2.8   155     3.9   981.2    0.00 
 244    2:10   0.00   63.2    93    3.9   168     5.7   981.2    0.00 
 244    2:20   0.00   63.0    93    3.9   163     5.0   981.1    0.00 
 244    2:30   0.00   62.8    93    4.3   179     5.5   980.9    0.00 
 244    2:40   0.00   62.7    93    4.2   178     6.0   980.9    0.00 
 244    2:50   0.00   62.9    93    5.2   189     7.2   981.0    0.00 
 244    3:00   0.00   62.8    93    5.5   194     7.3   981.0    0.00 
 244    3:10   0.00   63.1    93    6.0   191     8.3   981.0    0.00 
 244    3:20   0.00   63.2    93    4.5   179     7.5   981.0    0.00 
 244    3:30   0.00   63.3    93    5.5   177     8.7   981.0    0.00 
 244    3:40   0.00   63.3    93    5.2   206     7.2   980.9    0.00 
 244    3:50   0.00   63.5    93    4.5   218     6.9   981.0    0.00 
 244    4:00   0.00   63.5    93    4.6   185     6.3   981.0    0.00 
 244    4:10   0.00   63.5    92    3.1   175     5.4   981.0    0.00 
 244    4:20   0.00   63.6    92    4.2   225     5.8   981.0    0.00 
 244    4:30   0.00   63.6    92    2.9   210     5.0   981.2    0.00 
 244    4:40   0.00   63.7    92    2.9   192     4.0   981.3    0.00 
 244    4:50   0.00   63.6    92    3.5   250     5.2   981.3    0.00 
 244    5:00   0.00   63.5    92    3.9   229     6.1   981.3    0.00 
 244    5:10   0.00   63.4    91    4.2   220     5.9   981.3    0.00 
 244    5:20   0.00   63.3    91    3.5   198     5.3   981.3    0.00 
 244    5:30   0.00   63.2    91    0.9   199     4.2   981.3    0.00 
 244    5:40   0.00   63.4    91    0.7   211     3.0   981.4    0.00 
 244    5:50   0.01   63.5    91    1.0    62     3.0   981.4    0.00 
 244    6:00   0.02   63.5    90    1.5    88     2.8   981.5    0.00 
 244    6:10   0.03   63.8    90    2.2   110     3.4   981.5    0.00 
 244    6:20   0.04   64.0    89    2.1   172     3.7   981.5    0.00 
 244    6:30   0.05   64.0    89    3.0   180     4.9   981.7    0.00 
 244    6:40   0.06   64.0    88    2.4   208     5.1   981.8    0.00 
 244    6:50   0.08   64.2    88    2.4   179     4.2   981.8    0.00 
 244    7:00   0.09   64.3    88    1.8   114     3.4   981.8    0.00 

Return to Elliot Chaparral Reserve graphs page.


Western Regional Climate Center,wrcc@dri.edu